sensor_id;sensor_type;location;lat;lon;timestamp;P1;durP1;ratioP1;P2;durP2;ratioP2
30617;SDS011;17384;51.214;9.202;2024-02-21T00:01:35;26.45;;;7.45;;
30617;SDS011;17384;51.214;9.202;2024-02-21T00:04:00;22.00;;;7.43;;
30617;SDS011;17384;51.214;9.202;2024-02-21T00:06:26;26.27;;;7.15;;
30617;SDS011;17384;51.214;9.202;2024-02-21T00:08:51;18.25;;;7.97;;
30617;SDS011;17384;51.214;9.202;2024-02-21T00:11:16;27.23;;;7.22;;
30617;SDS011;17384;51.214;9.202;2024-02-21T00:13:42;20.73;;;7.72;;
30617;SDS011;17384;51.214;9.202;2024-02-21T00:16:07;21.42;;;6.43;;
30617;SDS011;17384;51.214;9.202;2024-02-21T00:18:33;21.23;;;6.97;;
30617;SDS011;17384;51.214;9.202;2024-02-21T00:20:58;33.38;;;8.82;;
30617;SDS011;17384;51.214;9.202;2024-02-21T00:23:24;23.13;;;7.10;;
30617;SDS011;17384;51.214;9.202;2024-02-21T00:25:49;21.77;;;7.53;;
30617;SDS011;17384;51.214;9.202;2024-02-21T00:28:15;28.42;;;7.50;;
30617;SDS011;17384;51.214;9.202;2024-02-21T00:30:40;25.17;;;6.75;;
30617;SDS011;17384;51.214;9.202;2024-02-21T00:33:05;19.58;;;6.13;;
30617;SDS011;17384;51.214;9.202;2024-02-21T00:35:31;24.35;;;6.70;;
30617;SDS011;17384;51.214;9.202;2024-02-21T00:37:56;31.67;;;10.00;;
30617;SDS011;17384;51.214;9.202;2024-02-21T00:40:24;23.75;;;7.72;;
30617;SDS011;17384;51.214;9.202;2024-02-21T00:42:50;35.10;;;9.38;;
30617;SDS011;17384;51.214;9.202;2024-02-21T00:45:15;25.08;;;9.80;;
30617;SDS011;17384;51.214;9.202;2024-02-21T00:47:41;27.92;;;8.82;;
30617;SDS011;17384;51.214;9.202;2024-02-21T00:50:06;30.25;;;9.57;;
30617;SDS011;17384;51.214;9.202;2024-02-21T00:52:32;25.52;;;8.73;;
30617;SDS011;17384;51.214;9.202;2024-02-21T00:54:58;23.70;;;8.82;;
30617;SDS011;17384;51.214;9.202;2024-02-21T00:57:24;30.85;;;9.38;;
30617;SDS011;17384;51.214;9.202;2024-02-21T00:59:49;28.15;;;8.68;;
30617;SDS011;17384;51.214;9.202;2024-02-21T01:02:15;28.75;;;8.95;;
30617;SDS011;17384;51.214;9.202;2024-02-21T01:04:40;42.30;;;9.05;;
30617;SDS011;17384;51.214;9.202;2024-02-21T01:07:06;22.25;;;8.18;;
30617;SDS011;17384;51.214;9.202;2024-02-21T01:09:31;31.02;;;10.15;;
30617;SDS011;17384;51.214;9.202;2024-02-21T01:11:57;22.45;;;7.53;;
30617;SDS011;17384;51.214;9.202;2024-02-21T01:14:22;21.92;;;8.25;;
30617;SDS011;17384;51.214;9.202;2024-02-21T01:16:48;33.88;;;10.65;;
30617;SDS011;17384;51.214;9.202;2024-02-21T01:19:13;27.10;;;8.32;;
30617;SDS011;17384;51.214;9.202;2024-02-21T01:21:39;29.42;;;9.05;;
30617;SDS011;17384;51.214;9.202;2024-02-21T01:24:04;29.90;;;9.07;;
30617;SDS011;17384;51.214;9.202;2024-02-21T01:26:30;24.85;;;8.95;;
30617;SDS011;17384;51.214;9.202;2024-02-21T01:28:55;28.65;;;9.57;;
30617;SDS011;17384;51.214;9.202;2024-02-21T01:31:20;28.15;;;8.27;;
30617;SDS011;17384;51.214;9.202;2024-02-21T01:33:46;25.10;;;8.13;;
30617;SDS011;17384;51.214;9.202;2024-02-21T01:36:11;26.85;;;9.52;;
30617;SDS011;17384;51.214;9.202;2024-02-21T01:38:37;36.08;;;9.98;;
30617;SDS011;17384;51.214;9.202;2024-02-21T01:41:02;25.80;;;8.90;;
30617;SDS011;17384;51.214;9.202;2024-02-21T01:43:28;23.85;;;9.45;;
30617;SDS011;17384;51.214;9.202;2024-02-21T01:45:54;23.95;;;9.88;;
30617;SDS011;17384;51.214;9.202;2024-02-21T01:48:21;25.77;;;8.70;;
30617;SDS011;17384;51.214;9.202;2024-02-21T01:50:48;32.22;;;9.30;;
30617;SDS011;17384;51.214;9.202;2024-02-21T01:53:15;28.75;;;10.20;;
30617;SDS011;17384;51.214;9.202;2024-02-21T01:55:46;31.85;;;9.70;;
30617;SDS011;17384;51.214;9.202;2024-02-21T01:58:16;32.65;;;10.55;;
30617;SDS011;17384;51.214;9.202;2024-02-21T02:00:44;29.55;;;9.93;;
30617;SDS011;17384;51.214;9.202;2024-02-21T02:03:11;32.03;;;8.85;;
30617;SDS011;17384;51.214;9.202;2024-02-21T02:05:45;25.38;;;8.18;;
30617;SDS011;17384;51.214;9.202;2024-02-21T02:08:14;36.67;;;9.90;;
30617;SDS011;17384;51.214;9.202;2024-02-21T02:10:41;33.33;;;9.13;;
30617;SDS011;17384;51.214;9.202;2024-02-21T02:13:06;24.95;;;9.02;;
30617;SDS011;17384;51.214;9.202;2024-02-21T02:15:41;30.08;;;10.45;;
30617;SDS011;17384;51.214;9.202;2024-02-21T02:18:08;27.58;;;9.25;;
30617;SDS011;17384;51.214;9.202;2024-02-21T02:20:34;29.52;;;9.13;;
30617;SDS011;17384;51.214;9.202;2024-02-21T02:23:01;25.80;;;10.18;;
30617;SDS011;17384;51.214;9.202;2024-02-21T02:25:50;27.63;;;9.30;;
30617;SDS011;17384;51.214;9.202;2024-02-21T02:28:19;30.30;;;9.32;;
30617;SDS011;17384;51.214;9.202;2024-02-21T02:30:45;28.95;;;9.98;;
30617;SDS011;17384;51.214;9.202;2024-02-21T02:33:11;35.92;;;9.98;;
30617;SDS011;17384;51.214;9.202;2024-02-21T02:35:36;26.90;;;9.00;;
30617;SDS011;17384;51.214;9.202;2024-02-21T02:38:02;31.77;;;9.40;;
30617;SDS011;17384;51.214;9.202;2024-02-21T02:40:28;30.88;;;10.48;;
30617;SDS011;17384;51.214;9.202;2024-02-21T02:42:54;20.90;;;8.80;;
30617;SDS011;17384;51.214;9.202;2024-02-21T02:45:22;21.10;;;9.35;;
30617;SDS011;17384;51.214;9.202;2024-02-21T02:47:52;23.70;;;9.23;;
30617;SDS011;17384;51.214;9.202;2024-02-21T02:50:19;23.52;;;9.88;;
30617;SDS011;17384;51.214;9.202;2024-02-21T02:52:45;28.17;;;10.07;;
30617;SDS011;17384;51.214;9.202;2024-02-21T02:55:10;27.60;;;9.73;;
30617;SDS011;17384;51.214;9.202;2024-02-21T02:57:36;26.10;;;9.38;;
30617;SDS011;17384;51.214;9.202;2024-02-21T03:00:02;31.95;;;9.88;;
30617;SDS011;17384;51.214;9.202;2024-02-21T03:02:28;23.98;;;9.00;;
30617;SDS011;17384;51.214;9.202;2024-02-21T03:04:53;25.42;;;8.82;;
30617;SDS011;17384;51.214;9.202;2024-02-21T03:07:19;25.17;;;9.98;;
30617;SDS011;17384;51.214;9.202;2024-02-21T03:09:45;24.85;;;9.20;;
30617;SDS011;17384;51.214;9.202;2024-02-21T03:12:10;36.92;;;10.38;;
30617;SDS011;17384;51.214;9.202;2024-02-21T03:14:36;24.35;;;10.15;;
30617;SDS011;17384;51.214;9.202;2024-02-21T03:17:02;26.77;;;9.48;;
30617;SDS011;17384;51.214;9.202;2024-02-21T03:19:28;29.80;;;9.35;;
30617;SDS011;17384;51.214;9.202;2024-02-21T03:21:54;31.60;;;9.00;;
30617;SDS011;17384;51.214;9.202;2024-02-21T03:24:20;27.65;;;9.45;;
30617;SDS011;17384;51.214;9.202;2024-02-21T03:26:46;25.40;;;8.50;;
30617;SDS011;17384;51.214;9.202;2024-02-21T03:29:16;31.38;;;11.07;;
30617;SDS011;17384;51.214;9.202;2024-02-21T03:31:41;24.40;;;9.82;;
30617;SDS011;17384;51.214;9.202;2024-02-21T03:34:07;31.42;;;9.98;;
30617;SDS011;17384;51.214;9.202;2024-02-21T03:36:33;22.80;;;10.52;;
30617;SDS011;17384;51.214;9.202;2024-02-21T03:38:59;33.35;;;11.73;;
30617;SDS011;17384;51.214;9.202;2024-02-21T03:41:24;29.50;;;11.27;;
30617;SDS011;17384;51.214;9.202;2024-02-21T03:43:50;28.98;;;11.27;;
30617;SDS011;17384;51.214;9.202;2024-02-21T03:46:15;31.50;;;11.45;;
30617;SDS011;17384;51.214;9.202;2024-02-21T03:48:41;20.10;;;8.85;;
30617;SDS011;17384;51.214;9.202;2024-02-21T03:51:06;28.40;;;11.48;;
30617;SDS011;17384;51.214;9.202;2024-02-21T03:53:32;23.92;;;9.52;;
30617;SDS011;17384;51.214;9.202;2024-02-21T03:56:00;40.60;;;10.88;;
30617;SDS011;17384;51.214;9.202;2024-02-21T03:58:28;25.85;;;10.77;;
30617;SDS011;17384;51.214;9.202;2024-02-21T04:00:53;27.25;;;10.57;;
30617;SDS011;17384;51.214;9.202;2024-02-21T04:03:19;22.17;;;9.45;;
30617;SDS011;17384;51.214;9.202;2024-02-21T04:05:44;26.38;;;9.82;;
30617;SDS011;17384;51.214;9.202;2024-02-21T04:08:10;31.45;;;10.25;;
30617;SDS011;17384;51.214;9.202;2024-02-21T04:10:36;30.88;;;11.32;;
30617;SDS011;17384;51.214;9.202;2024-02-21T04:13:01;22.63;;;9.32;;
30617;SDS011;17384;51.214;9.202;2024-02-21T04:15:27;31.88;;;10.40;;
30617;SDS011;17384;51.214;9.202;2024-02-21T04:17:52;33.90;;;13.52;;
30617;SDS011;17384;51.214;9.202;2024-02-21T04:20:18;27.23;;;10.25;;
30617;SDS011;17384;51.214;9.202;2024-02-21T04:22:43;25.70;;;9.95;;
30617;SDS011;17384;51.214;9.202;2024-02-21T04:25:14;33.33;;;10.35;;
30617;SDS011;17384;51.214;9.202;2024-02-21T04:27:39;28.25;;;10.02;;
30617;SDS011;17384;51.214;9.202;2024-02-21T04:30:06;24.10;;;9.93;;
30617;SDS011;17384;51.214;9.202;2024-02-21T04:32:32;22.83;;;8.95;;
30617;SDS011;17384;51.214;9.202;2024-02-21T04:34:57;24.25;;;8.95;;
30617;SDS011;17384;51.214;9.202;2024-02-21T04:37:23;25.33;;;9.35;;
30617;SDS011;17384;51.214;9.202;2024-02-21T04:39:49;34.17;;;8.88;;
30617;SDS011;17384;51.214;9.202;2024-02-21T04:42:15;25.52;;;8.40;;
30617;SDS011;17384;51.214;9.202;2024-02-21T04:44:40;33.38;;;9.98;;
30617;SDS011;17384;51.214;9.202;2024-02-21T04:47:06;21.75;;;8.77;;
30617;SDS011;17384;51.214;9.202;2024-02-21T04:49:32;23.75;;;9.40;;
30617;SDS011;17384;51.214;9.202;2024-02-21T04:51:58;23.20;;;7.97;;
30617;SDS011;17384;51.214;9.202;2024-02-21T04:54:23;28.33;;;8.60;;
30617;SDS011;17384;51.214;9.202;2024-02-21T04:56:49;21.58;;;9.13;;
30617;SDS011;17384;51.214;9.202;2024-02-21T04:59:14;33.92;;;9.43;;
30617;SDS011;17384;51.214;9.202;2024-02-21T05:01:40;24.60;;;8.88;;
30617;SDS011;17384;51.214;9.202;2024-02-21T05:04:05;31.38;;;9.32;;
30617;SDS011;17384;51.214;9.202;2024-02-21T05:06:31;26.23;;;8.13;;
30617;SDS011;17384;51.214;9.202;2024-02-21T05:08:56;25.23;;;9.25;;
30617;SDS011;17384;51.214;9.202;2024-02-21T05:11:23;29.45;;;9.48;;
30617;SDS011;17384;51.214;9.202;2024-02-21T05:13:48;26.20;;;9.43;;
30617;SDS011;17384;51.214;9.202;2024-02-21T05:16:14;28.13;;;8.75;;
30617;SDS011;17384;51.214;9.202;2024-02-21T05:18:40;23.63;;;8.60;;
30617;SDS011;17384;51.214;9.202;2024-02-21T05:21:07;24.80;;;9.55;;
30617;SDS011;17384;51.214;9.202;2024-02-21T05:23:33;24.90;;;9.80;;
30617;SDS011;17384;51.214;9.202;2024-02-21T05:25:58;23.38;;;8.38;;
30617;SDS011;17384;51.214;9.202;2024-02-21T05:28:24;38.72;;;9.63;;
30617;SDS011;17384;51.214;9.202;2024-02-21T05:30:49;26.70;;;9.48;;
30617;SDS011;17384;51.214;9.202;2024-02-21T05:33:15;23.13;;;9.73;;
30617;SDS011;17384;51.214;9.202;2024-02-21T05:35:46;27.40;;;9.63;;
30617;SDS011;17384;51.214;9.202;2024-02-21T05:38:14;25.77;;;9.52;;
30617;SDS011;17384;51.214;9.202;2024-02-21T05:40:40;22.45;;;8.52;;
30617;SDS011;17384;51.214;9.202;2024-02-21T05:43:07;20.65;;;9.30;;
30617;SDS011;17384;51.214;9.202;2024-02-21T05:45:33;24.80;;;9.98;;
30617;SDS011;17384;51.214;9.202;2024-02-21T05:47:59;21.63;;;9.35;;
30617;SDS011;17384;51.214;9.202;2024-02-21T05:50:25;22.13;;;8.60;;
30617;SDS011;17384;51.214;9.202;2024-02-21T05:52:52;24.70;;;8.90;;
30617;SDS011;17384;51.214;9.202;2024-02-21T05:55:18;26.98;;;8.88;;
30617;SDS011;17384;51.214;9.202;2024-02-21T05:57:43;24.58;;;9.07;;
30617;SDS011;17384;51.214;9.202;2024-02-21T06:00:09;26.42;;;10.18;;
30617;SDS011;17384;51.214;9.202;2024-02-21T06:02:35;22.23;;;9.93;;
30617;SDS011;17384;51.214;9.202;2024-02-21T06:05:00;25.58;;;8.77;;
30617;SDS011;17384;51.214;9.202;2024-02-21T06:07:25;22.65;;;9.18;;
30617;SDS011;17384;51.214;9.202;2024-02-21T06:09:51;23.23;;;9.63;;
30617;SDS011;17384;51.214;9.202;2024-02-21T06:12:16;19.58;;;8.02;;
30617;SDS011;17384;51.214;9.202;2024-02-21T06:14:42;22.20;;;8.93;;
30617;SDS011;17384;51.214;9.202;2024-02-21T06:17:07;18.95;;;8.50;;
30617;SDS011;17384;51.214;9.202;2024-02-21T06:19:33;24.50;;;8.98;;
30617;SDS011;17384;51.214;9.202;2024-02-21T06:21:58;18.25;;;7.70;;
30617;SDS011;17384;51.214;9.202;2024-02-21T06:24:24;16.85;;;8.93;;
30617;SDS011;17384;51.214;9.202;2024-02-21T06:26:49;19.25;;;8.52;;
30617;SDS011;17384;51.214;9.202;2024-02-21T06:29:15;22.10;;;9.10;;
30617;SDS011;17384;51.214;9.202;2024-02-21T06:31:40;19.88;;;8.38;;
30617;SDS011;17384;51.214;9.202;2024-02-21T06:34:06;21.45;;;8.65;;
30617;SDS011;17384;51.214;9.202;2024-02-21T06:36:32;27.77;;;9.15;;
30617;SDS011;17384;51.214;9.202;2024-02-21T06:38:58;27.02;;;8.50;;
30617;SDS011;17384;51.214;9.202;2024-02-21T06:41:24;24.60;;;8.50;;
30617;SDS011;17384;51.214;9.202;2024-02-21T06:43:49;23.33;;;8.82;;
30617;SDS011;17384;51.214;9.202;2024-02-21T06:46:25;21.17;;;7.60;;
30617;SDS011;17384;51.214;9.202;2024-02-21T06:48:51;19.23;;;7.22;;
30617;SDS011;17384;51.214;9.202;2024-02-21T06:51:17;17.13;;;8.57;;
30617;SDS011;17384;51.214;9.202;2024-02-21T06:53:43;16.25;;;7.93;;
30617;SDS011;17384;51.214;9.202;2024-02-21T06:56:09;20.52;;;8.60;;
30617;SDS011;17384;51.214;9.202;2024-02-21T06:58:35;22.85;;;9.13;;
30617;SDS011;17384;51.214;9.202;2024-02-21T07:01:01;26.90;;;8.70;;
30617;SDS011;17384;51.214;9.202;2024-02-21T07:03:27;27.58;;;8.77;;
30617;SDS011;17384;51.214;9.202;2024-02-21T07:05:52;23.15;;;7.97;;
30617;SDS011;17384;51.214;9.202;2024-02-21T07:08:18;23.95;;;8.55;;
30617;SDS011;17384;51.214;9.202;2024-02-21T07:10:43;20.02;;;7.47;;
30617;SDS011;17384;51.214;9.202;2024-02-21T07:13:08;22.77;;;7.10;;
30617;SDS011;17384;51.214;9.202;2024-02-21T07:15:34;23.02;;;8.05;;
30617;SDS011;17384;51.214;9.202;2024-02-21T07:18:01;17.25;;;7.70;;
30617;SDS011;17384;51.214;9.202;2024-02-21T07:20:26;23.70;;;8.63;;
30617;SDS011;17384;51.214;9.202;2024-02-21T07:22:52;23.92;;;8.68;;
30617;SDS011;17384;51.214;9.202;2024-02-21T07:25:17;23.55;;;8.23;;
30617;SDS011;17384;51.214;9.202;2024-02-21T07:27:43;30.08;;;9.85;;
30617;SDS011;17384;51.214;9.202;2024-02-21T07:30:09;27.60;;;9.48;;
30617;SDS011;17384;51.214;9.202;2024-02-21T07:32:35;23.73;;;7.65;;
30617;SDS011;17384;51.214;9.202;2024-02-21T07:35:00;25.40;;;9.60;;
30617;SDS011;17384;51.214;9.202;2024-02-21T07:37:26;25.88;;;9.73;;
30617;SDS011;17384;51.214;9.202;2024-02-21T07:39:52;24.52;;;7.82;;
30617;SDS011;17384;51.214;9.202;2024-02-21T07:42:17;27.45;;;9.02;;
30617;SDS011;17384;51.214;9.202;2024-02-21T07:44:43;24.92;;;8.70;;
30617;SDS011;17384;51.214;9.202;2024-02-21T07:47:08;23.60;;;9.00;;
30617;SDS011;17384;51.214;9.202;2024-02-21T07:49:40;24.05;;;6.95;;
30617;SDS011;17384;51.214;9.202;2024-02-21T07:52:06;27.70;;;9.50;;
30617;SDS011;17384;51.214;9.202;2024-02-21T07:54:32;27.98;;;8.73;;
30617;SDS011;17384;51.214;9.202;2024-02-21T07:56:58;35.35;;;12.70;;
30617;SDS011;17384;51.214;9.202;2024-02-21T07:59:23;24.13;;;9.20;;
30617;SDS011;17384;51.214;9.202;2024-02-21T08:01:49;19.63;;;7.50;;
30617;SDS011;17384;51.214;9.202;2024-02-21T08:04:14;21.48;;;7.55;;
30617;SDS011;17384;51.214;9.202;2024-02-21T08:06:39;22.25;;;7.63;;
30617;SDS011;17384;51.214;9.202;2024-02-21T08:09:05;26.00;;;7.97;;
30617;SDS011;17384;51.214;9.202;2024-02-21T08:11:30;20.80;;;7.60;;
30617;SDS011;17384;51.214;9.202;2024-02-21T08:13:56;17.52;;;6.78;;
30617;SDS011;17384;51.214;9.202;2024-02-21T08:16:22;25.17;;;8.32;;
30617;SDS011;17384;51.214;9.202;2024-02-21T08:18:47;18.02;;;6.18;;
30617;SDS011;17384;51.214;9.202;2024-02-21T08:21:13;20.25;;;8.15;;
30617;SDS011;17384;51.214;9.202;2024-02-21T08:23:38;18.92;;;7.95;;
30617;SDS011;17384;51.214;9.202;2024-02-21T08:26:04;13.65;;;6.20;;
30617;SDS011;17384;51.214;9.202;2024-02-21T08:28:29;18.35;;;6.03;;
30617;SDS011;17384;51.214;9.202;2024-02-21T08:30:55;21.52;;;6.35;;
30617;SDS011;17384;51.214;9.202;2024-02-21T08:33:20;21.25;;;7.22;;
30617;SDS011;17384;51.214;9.202;2024-02-21T08:35:50;19.98;;;6.47;;
30617;SDS011;17384;51.214;9.202;2024-02-21T08:38:16;19.23;;;5.68;;
30617;SDS011;17384;51.214;9.202;2024-02-21T08:40:41;17.80;;;6.05;;
30617;SDS011;17384;51.214;9.202;2024-02-21T08:43:07;18.70;;;6.57;;
30617;SDS011;17384;51.214;9.202;2024-02-21T08:45:32;14.73;;;5.85;;
30617;SDS011;17384;51.214;9.202;2024-02-21T08:47:57;21.90;;;5.97;;
30617;SDS011;17384;51.214;9.202;2024-02-21T08:50:23;14.38;;;5.65;;
30617;SDS011;17384;51.214;9.202;2024-02-21T08:52:48;17.20;;;5.55;;
30617;SDS011;17384;51.214;9.202;2024-02-21T08:55:14;13.77;;;5.72;;
30617;SDS011;17384;51.214;9.202;2024-02-21T08:57:39;16.00;;;5.32;;
30617;SDS011;17384;51.214;9.202;2024-02-21T09:00:05;13.85;;;5.75;;
30617;SDS011;17384;51.214;9.202;2024-02-21T09:02:39;15.70;;;5.85;;
30617;SDS011;17384;51.214;9.202;2024-02-21T09:05:05;17.23;;;5.25;;
30617;SDS011;17384;51.214;9.202;2024-02-21T09:07:31;12.02;;;5.32;;
30617;SDS011;17384;51.214;9.202;2024-02-21T09:09:57;21.92;;;6.88;;
30617;SDS011;17384;51.214;9.202;2024-02-21T09:12:23;16.02;;;6.03;;
30617;SDS011;17384;51.214;9.202;2024-02-21T09:14:49;20.48;;;6.82;;
30617;SDS011;17384;51.214;9.202;2024-02-21T09:17:16;17.58;;;6.03;;
30617;SDS011;17384;51.214;9.202;2024-02-21T09:19:42;17.25;;;5.90;;
30617;SDS011;17384;51.214;9.202;2024-02-21T09:22:08;15.50;;;6.00;;
30617;SDS011;17384;51.214;9.202;2024-02-21T09:24:34;17.20;;;5.47;;
30617;SDS011;17384;51.214;9.202;2024-02-21T09:26:59;16.27;;;5.30;;
30617;SDS011;17384;51.214;9.202;2024-02-21T09:29:25;17.63;;;5.15;;
30617;SDS011;17384;51.214;9.202;2024-02-21T09:31:50;24.42;;;5.35;;
30617;SDS011;17384;51.214;9.202;2024-02-21T09:34:17;15.18;;;6.25;;
30617;SDS011;17384;51.214;9.202;2024-02-21T09:36:42;14.68;;;4.78;;
30617;SDS011;17384;51.214;9.202;2024-02-21T09:39:09;13.77;;;5.65;;
30617;SDS011;17384;51.214;9.202;2024-02-21T09:41:36;15.02;;;5.95;;
30617;SDS011;17384;51.214;9.202;2024-02-21T09:44:06;11.05;;;4.45;;
30617;SDS011;17384;51.214;9.202;2024-02-21T09:46:52;11.95;;;4.75;;
30617;SDS011;17384;51.214;9.202;2024-02-21T09:49:31;11.40;;;4.63;;
30617;SDS011;17384;51.214;9.202;2024-02-21T09:51:59;15.43;;;5.40;;
30617;SDS011;17384;51.214;9.202;2024-02-21T09:54:28;12.68;;;4.68;;
30617;SDS011;17384;51.214;9.202;2024-02-21T09:56:55;21.00;;;6.47;;
30617;SDS011;17384;51.214;9.202;2024-02-21T09:59:20;12.68;;;4.85;;
30617;SDS011;17384;51.214;9.202;2024-02-21T10:01:47;21.13;;;4.97;;
30617;SDS011;17384;51.214;9.202;2024-02-21T10:04:13;18.52;;;6.20;;
30617;SDS011;17384;51.214;9.202;2024-02-21T10:06:38;19.35;;;5.22;;
30617;SDS011;17384;51.214;9.202;2024-02-21T10:09:05;14.48;;;5.72;;
30617;SDS011;17384;51.214;9.202;2024-02-21T10:11:31;22.33;;;5.70;;
30617;SDS011;17384;51.214;9.202;2024-02-21T10:14:06;16.85;;;4.90;;
30617;SDS011;17384;51.214;9.202;2024-02-21T10:16:32;14.80;;;5.35;;
30617;SDS011;17384;51.214;9.202;2024-02-21T10:18:58;14.40;;;4.72;;
30617;SDS011;17384;51.214;9.202;2024-02-21T10:21:24;14.88;;;5.93;;
30617;SDS011;17384;51.214;9.202;2024-02-21T10:23:49;11.30;;;4.63;;
30617;SDS011;17384;51.214;9.202;2024-02-21T10:26:16;18.40;;;5.60;;
30617;SDS011;17384;51.214;9.202;2024-02-21T10:28:42;20.83;;;6.88;;
30617;SDS011;17384;51.214;9.202;2024-02-21T10:31:10;16.02;;;6.82;;
30617;SDS011;17384;51.214;9.202;2024-02-21T10:33:36;15.07;;;4.93;;
30617;SDS011;17384;51.214;9.202;2024-02-21T10:36:06;15.57;;;5.20;;
30617;SDS011;17384;51.214;9.202;2024-02-21T10:38:38;14.83;;;4.93;;
30617;SDS011;17384;51.214;9.202;2024-02-21T10:41:05;16.35;;;4.60;;
30617;SDS011;17384;51.214;9.202;2024-02-21T10:43:33;19.70;;;5.50;;
30617;SDS011;17384;51.214;9.202;2024-02-21T10:48:42;11.77;;;3.85;;
30617;SDS011;17384;51.214;9.202;2024-02-21T10:51:18;12.32;;;5.03;;
30617;SDS011;17384;51.214;9.202;2024-02-21T10:56:24;11.38;;;4.40;;
30617;SDS011;17384;51.214;9.202;2024-02-21T10:58:53;18.98;;;6.72;;
30617;SDS011;17384;51.214;9.202;2024-02-21T11:01:21;12.25;;;4.57;;
30617;SDS011;17384;51.214;9.202;2024-02-21T11:03:48;16.60;;;5.25;;
30617;SDS011;17384;51.214;9.202;2024-02-21T11:06:15;13.52;;;5.35;;
30617;SDS011;17384;51.214;9.202;2024-02-21T11:08:42;24.27;;;6.75;;
30617;SDS011;17384;51.214;9.202;2024-02-21T11:11:11;13.43;;;5.80;;
30617;SDS011;17384;51.214;9.202;2024-02-21T11:13:42;17.00;;;5.05;;
30617;SDS011;17384;51.214;9.202;2024-02-21T11:16:11;15.23;;;5.97;;
30617;SDS011;17384;51.214;9.202;2024-02-21T11:18:46;16.50;;;5.82;;
30617;SDS011;17384;51.214;9.202;2024-02-21T11:21:11;11.88;;;6.35;;
30617;SDS011;17384;51.214;9.202;2024-02-21T11:23:37;24.20;;;6.10;;
30617;SDS011;17384;51.214;9.202;2024-02-21T11:26:06;16.73;;;6.35;;
30617;SDS011;17384;51.214;9.202;2024-02-21T11:28:32;17.67;;;6.07;;
30617;SDS011;17384;51.214;9.202;2024-02-21T11:31:06;19.20;;;7.20;;
30617;SDS011;17384;51.214;9.202;2024-02-21T11:33:33;20.23;;;6.78;;
30617;SDS011;17384;51.214;9.202;2024-02-21T11:35:59;16.50;;;6.75;;
30617;SDS011;17384;51.214;9.202;2024-02-21T11:38:25;20.60;;;6.18;;
30617;SDS011;17384;51.214;9.202;2024-02-21T11:40:50;16.20;;;6.25;;
30617;SDS011;17384;51.214;9.202;2024-02-21T11:43:16;31.52;;;6.95;;
30617;SDS011;17384;51.214;9.202;2024-02-21T11:45:42;14.00;;;5.60;;
30617;SDS011;17384;51.214;9.202;2024-02-21T11:48:07;12.68;;;5.63;;
30617;SDS011;17384;51.214;9.202;2024-02-21T11:50:34;16.27;;;6.18;;
30617;SDS011;17384;51.214;9.202;2024-02-21T11:53:01;13.88;;;5.50;;
30617;SDS011;17384;51.214;9.202;2024-02-21T11:55:26;19.05;;;5.70;;
30617;SDS011;17384;51.214;9.202;2024-02-21T11:57:52;15.18;;;5.40;;
30617;SDS011;17384;51.214;9.202;2024-02-21T12:00:18;21.42;;;5.88;;
30617;SDS011;17384;51.214;9.202;2024-02-21T12:02:49;13.43;;;4.78;;
30617;SDS011;17384;51.214;9.202;2024-02-21T12:05:15;14.45;;;5.57;;
30617;SDS011;17384;51.214;9.202;2024-02-21T12:07:41;19.77;;;6.25;;
30617;SDS011;17384;51.214;9.202;2024-02-21T12:10:08;13.40;;;5.10;;
30617;SDS011;17384;51.214;9.202;2024-02-21T12:12:35;19.15;;;6.18;;
30617;SDS011;17384;51.214;9.202;2024-02-21T12:15:02;13.50;;;5.80;;
30617;SDS011;17384;51.214;9.202;2024-02-21T12:17:34;18.02;;;5.93;;
30617;SDS011;17384;51.214;9.202;2024-02-21T12:20:01;19.92;;;8.02;;
30617;SDS011;17384;51.214;9.202;2024-02-21T12:22:30;18.85;;;6.30;;
30617;SDS011;17384;51.214;9.202;2024-02-21T12:24:57;16.65;;;5.00;;
30617;SDS011;17384;51.214;9.202;2024-02-21T12:27:23;15.13;;;5.65;;
30617;SDS011;17384;51.214;9.202;2024-02-21T12:29:50;17.70;;;6.43;;
30617;SDS011;17384;51.214;9.202;2024-02-21T12:32:15;18.85;;;6.45;;
30617;SDS011;17384;51.214;9.202;2024-02-21T12:34:41;19.05;;;6.07;;
30617;SDS011;17384;51.214;9.202;2024-02-21T12:37:06;17.73;;;5.43;;
30617;SDS011;17384;51.214;9.202;2024-02-21T12:39:32;15.30;;;5.82;;
30617;SDS011;17384;51.214;9.202;2024-02-21T12:41:57;18.90;;;6.13;;
30617;SDS011;17384;51.214;9.202;2024-02-21T12:44:23;16.50;;;5.70;;
30617;SDS011;17384;51.214;9.202;2024-02-21T12:46:49;16.35;;;5.15;;
30617;SDS011;17384;51.214;9.202;2024-02-21T12:49:17;14.30;;;5.75;;
30617;SDS011;17384;51.214;9.202;2024-02-21T12:51:43;18.75;;;5.05;;
30617;SDS011;17384;51.214;9.202;2024-02-21T12:54:08;16.60;;;6.22;;
30617;SDS011;17384;51.214;9.202;2024-02-21T12:56:36;19.90;;;4.65;;
30617;SDS011;17384;51.214;9.202;2024-02-21T12:59:02;21.08;;;6.97;;
30617;SDS011;17384;51.214;9.202;2024-02-21T13:01:27;17.65;;;6.00;;
30617;SDS011;17384;51.214;9.202;2024-02-21T13:03:53;23.00;;;8.25;;
30617;SDS011;17384;51.214;9.202;2024-02-21T13:06:19;17.77;;;7.03;;
30617;SDS011;17384;51.214;9.202;2024-02-21T13:08:44;21.55;;;9.10;;
30617;SDS011;17384;51.214;9.202;2024-02-21T13:11:11;15.80;;;5.68;;
30617;SDS011;17384;51.214;9.202;2024-02-21T13:13:37;19.42;;;5.97;;
30617;SDS011;17384;51.214;9.202;2024-02-21T13:16:03;19.25;;;6.35;;
30617;SDS011;17384;51.214;9.202;2024-02-21T13:18:29;13.93;;;5.70;;
30617;SDS011;17384;51.214;9.202;2024-02-21T13:20:54;16.40;;;6.60;;
30617;SDS011;17384;51.214;9.202;2024-02-21T13:23:20;17.15;;;6.40;;
30617;SDS011;17384;51.214;9.202;2024-02-21T13:25:48;17.13;;;6.03;;
30617;SDS011;17384;51.214;9.202;2024-02-21T13:28:14;19.02;;;5.93;;
30617;SDS011;17384;51.214;9.202;2024-02-21T13:30:41;19.35;;;5.53;;
30617;SDS011;17384;51.214;9.202;2024-02-21T13:33:07;19.73;;;5.38;;
30617;SDS011;17384;51.214;9.202;2024-02-21T13:35:32;14.27;;;5.88;;
30617;SDS011;17384;51.214;9.202;2024-02-21T13:37:58;16.65;;;6.82;;
30617;SDS011;17384;51.214;9.202;2024-02-21T13:40:23;16.27;;;6.13;;
30617;SDS011;17384;51.214;9.202;2024-02-21T13:42:50;15.57;;;5.78;;
30617;SDS011;17384;51.214;9.202;2024-02-21T13:45:16;18.73;;;5.38;;
30617;SDS011;17384;51.214;9.202;2024-02-21T13:47:42;14.35;;;4.97;;
30617;SDS011;17384;51.214;9.202;2024-02-21T13:50:07;19.15;;;5.18;;
30617;SDS011;17384;51.214;9.202;2024-02-21T13:52:45;10.95;;;4.15;;
30617;SDS011;17384;51.214;9.202;2024-02-21T13:55:11;11.63;;;4.50;;
30617;SDS011;17384;51.214;9.202;2024-02-21T13:57:37;20.15;;;7.07;;
30617;SDS011;17384;51.214;9.202;2024-02-21T14:00:03;15.10;;;5.90;;
30617;SDS011;17384;51.214;9.202;2024-02-21T14:02:29;14.55;;;4.90;;
30617;SDS011;17384;51.214;9.202;2024-02-21T14:04:55;23.08;;;6.13;;
30617;SDS011;17384;51.214;9.202;2024-02-21T14:07:21;18.38;;;5.90;;
30617;SDS011;17384;51.214;9.202;2024-02-21T14:09:46;30.80;;;7.28;;
30617;SDS011;17384;51.214;9.202;2024-02-21T14:12:12;14.80;;;5.05;;
30617;SDS011;17384;51.214;9.202;2024-02-21T14:14:37;15.63;;;5.78;;
30617;SDS011;17384;51.214;9.202;2024-02-21T14:17:03;14.85;;;4.68;;
30617;SDS011;17384;51.214;9.202;2024-02-21T14:19:29;15.48;;;4.75;;
30617;SDS011;17384;51.214;9.202;2024-02-21T14:21:54;16.92;;;5.00;;
30617;SDS011;17384;51.214;9.202;2024-02-21T14:24:21;21.13;;;6.47;;
30617;SDS011;17384;51.214;9.202;2024-02-21T14:26:47;16.95;;;4.38;;
30617;SDS011;17384;51.214;9.202;2024-02-21T14:29:13;18.10;;;5.22;;
30617;SDS011;17384;51.214;9.202;2024-02-21T14:31:39;17.30;;;7.43;;
30617;SDS011;17384;51.214;9.202;2024-02-21T14:34:05;17.98;;;5.60;;